Time;durP1;ratioP1;P1;durP2;ratioP2;P2;SDS_P1;SDS_P2;PMS_P1;PMS_P2;Temp;Humidity;BMP_temperature;BMP_pressure;BME280_temperature;BME280_humidity;BME280_pressure;Samples;Min_cycle;Max_cycle;Signal;HPM_P1;HPM_P2
2020/12/07 00:02:23;;;;;;;12.27;10.63;;;;;;;;;;5035632;28;20034;-65
2020/12/07 00:04:49;;;;;;;12.88;11.20;;;;;;;;;;5034286;28;20024;-65
2020/12/07 00:07:15;;;;;;;11.98;9.93;;;;;;;;;;5035834;28;20037;-65
2020/12/07 00:09:40;;;;;;;12.23;10.18;;;;;;;;;;5035652;28;20155;-64
2020/12/07 00:12:06;;;;;;;12.07;10.27;;;;;;;;;;5035974;28;20033;-64
2020/12/07 00:14:32;;;;;;;12.88;10.32;;;;;;;;;;5035614;28;20490;-64
2020/12/07 00:16:58;;;;;;;12.55;9.57;;;;;;;;;;5035860;28;20029;-64
2020/12/07 00:19:23;;;;;;;12.52;10.88;;;;;;;;;;5035547;28;20459;-66
2020/12/07 00:21:49;;;;;;;13.90;10.00;;;;;;;;;;5035428;28;20069;-65
2020/12/07 00:24:15;;;;;;;15.80;10.82;;;;;;;;;;5035507;28;20017;-65
2020/12/07 00:26:44;;;;;;;14.35;9.35;;;;;;;;;;5035379;28;20043;-66
2020/12/07 00:29:10;;;;;;;11.95;9.00;;;;;;;;;;5035248;28;20077;-66
2020/12/07 00:31:39;;;;;;;12.40;9.70;;;;;;;;;;5035167;28;20065;-65
2020/12/07 00:34:04;;;;;;;12.52;9.43;;;;;;;;;;5035360;28;20379;-64
2020/12/07 00:36:30;;;;;;;10.73;9.68;;;;;;;;;;5033920;28;20045;-64
2020/12/07 00:38:55;;;;;;;10.93;8.95;;;;;;;;;;5035225;28;20116;-64
2020/12/07 00:41:22;;;;;;;11.57;9.68;;;;;;;;;;5035467;28;20035;-64
2020/12/07 00:43:47;;;;;;;10.48;9.38;;;;;;;;;;5034572;28;20028;-64
2020/12/07 00:46:13;;;;;;;11.80;9.25;;;;;;;;;;5035236;28;20033;-64
2020/12/07 00:48:38;;;;;;;11.32;9.50;;;;;;;;;;5034810;28;20045;-64
2020/12/07 00:51:04;;;;;;;10.80;9.50;;;;;;;;;;5035228;28;20383;-65
2020/12/07 00:53:29;;;;;;;9.32;8.38;;;;;;;;;;5033610;28;20040;-63
2020/12/07 00:55:55;;;;;;;11.13;8.98;;;;;;;;;;5034866;28;20118;-63
2020/12/07 00:58:21;;;;;;;11.73;8.68;;;;;;;;;;5066520;28;20029;-64
2020/12/07 01:00:46;;;;;;;10.23;9.23;;;;;;;;;;5034131;28;20040;-64
2020/12/07 01:03:12;;;;;;;21.27;17.83;;;;;;;;;;5034897;28;20037;-64
2020/12/07 01:05:37;;;;;;;23.58;18.20;;;;;;;;;;5034612;28;20108;-63
2020/12/07 01:08:03;;;;;;;19.38;17.38;;;;;;;;;;5033931;28;20368;-63
2020/12/07 01:10:29;;;;;;;21.58;12.25;;;;;;;;;;5033751;28;20083;-63
2020/12/07 01:12:56;;;;;;;14.18;10.07;;;;;;;;;;5033906;28;20017;-64
2020/12/07 01:15:22;;;;;;;15.52;10.32;;;;;;;;;;5035075;28;20026;-66
2020/12/07 01:17:48;;;;;;;14.07;9.85;;;;;;;;;;5033651;28;20026;-66
2020/12/07 01:20:14;;;;;;;11.40;9.27;;;;;;;;;;5033580;28;20033;-66
2020/12/07 01:22:39;;;;;;;13.55;9.43;;;;;;;;;;5034786;28;20067;-65
2020/12/07 01:25:06;;;;;;;12.63;8.52;;;;;;;;;;5033471;28;20033;-66
2020/12/07 01:27:43;;;;;;;12.93;9.27;;;;;;;;;;5033595;28;20018;-66
2020/12/07 01:30:09;;;;;;;13.45;10.38;;;;;;;;;;5033515;28;20025;-66
2020/12/07 01:32:35;;;;;;;11.57;9.18;;;;;;;;;;5033365;28;20030;-66
2020/12/07 01:35:00;;;;;;;10.63;9.52;;;;;;;;;;5033584;28;20391;-66
2020/12/07 01:37:26;;;;;;;11.50;9.40;;;;;;;;;;5033301;28;20021;-66
2020/12/07 01:39:52;;;;;;;11.65;9.48;;;;;;;;;;5032752;28;20369;-66
2020/12/07 01:42:18;;;;;;;13.80;9.70;;;;;;;;;;5033330;28;20021;-65
2020/12/07 01:44:44;;;;;;;10.27;9.27;;;;;;;;;;5033124;28;20067;-65
2020/12/07 01:47:20;;;;;;;10.32;9.20;;;;;;;;;;5033013;28;20071;-65
2020/12/07 01:49:49;;;;;;;11.38;9.90;;;;;;;;;;5032359;28;20041;-65
2020/12/07 01:52:17;;;;;;;12.18;9.52;;;;;;;;;;5033169;28;20037;-65
2020/12/07 01:54:44;;;;;;;10.32;8.65;;;;;;;;;;5033025;28;20036;-65
2020/12/07 01:57:10;;;;;;;10.93;8.20;;;;;;;;;;5032959;28;20609;-65
2020/12/07 01:59:35;;;;;;;9.00;8.02;;;;;;;;;;5033084;28;20076;-65
2020/12/07 02:02:01;;;;;;;11.00;8.63;;;;;;;;;;5034079;28;20048;-65
2020/12/07 02:04:27;;;;;;;11.93;8.73;;;;;;;;;;5032840;28;20103;-65
2020/12/07 02:06:53;;;;;;;9.80;8.25;;;;;;;;;;5032658;28;20017;-65
2020/12/07 02:09:24;;;;;;;10.30;8.40;;;;;;;;;;5032717;28;20454;-65
2020/12/07 02:11:51;;;;;;;9.77;8.63;;;;;;;;;;5032198;28;20049;-64
2020/12/07 02:14:17;;;;;;;10.65;8.15;;;;;;;;;;5032387;28;20537;-64
2020/12/07 02:16:44;;;;;;;11.40;8.07;;;;;;;;;;5032663;28;20029;-64
2020/12/07 02:19:09;;;;;;;11.98;9.40;;;;;;;;;;5032570;28;20036;-64
2020/12/07 02:21:42;;;;;;;10.38;9.13;;;;;;;;;;5032460;28;20025;-64
2020/12/07 02:24:31;;;;;;;9.45;8.38;;;;;;;;;;5030456;28;20120;-65
2020/12/07 02:27:05;;;;;;;6.78;6.13;;;;;;;;;;5032681;28;20422;-66
2020/12/07 02:29:33;;;;;;;8.65;7.82;;;;;;;;;;5033604;28;20104;-66
2020/12/07 02:32:14;;;;;;;8.80;7.88;;;;;;;;;;5032498;28;20045;-66
2020/12/07 02:34:46;;;;;;;9.77;8.88;;;;;;;;;;5032242;28;20047;-66
2020/12/07 02:37:13;;;;;;;9.52;8.63;;;;;;;;;;5033502;28;20365;-66
2020/12/07 02:39:41;;;;;;;10.57;8.77;;;;;;;;;;5032225;28;20013;-66
2020/12/07 02:42:07;;;;;;;8.18;7.45;;;;;;;;;;5065390;28;20036;-68
2020/12/07 02:44:34;;;;;;;9.20;7.63;;;;;;;;;;5032182;28;20029;-66
2020/12/07 02:47:10;;;;;;;8.38;7.57;;;;;;;;;;5032242;28;20503;-66
2020/12/07 02:49:36;;;;;;;10.85;7.57;;;;;;;;;;5031798;28;20046;-65
2020/12/07 02:52:02;;;;;;;9.82;6.93;;;;;;;;;;5032161;28;20572;-64
2020/12/07 02:54:34;;;;;;;8.02;7.32;;;;;;;;;;5032106;28;20033;-65
2020/12/07 02:57:04;;;;;;;9.05;7.82;;;;;;;;;;5065375;28;20033;-64
2020/12/07 02:59:29;;;;;;;8.70;7.90;;;;;;;;;;5031946;28;20067;-66
2020/12/07 03:01:56;;;;;;;7.72;7.03;;;;;;;;;;5031960;28;20029;-64
2020/12/07 03:04:21;;;;;;;7.43;6.82;;;;;;;;;;5031920;28;20017;-64
2020/12/07 03:06:47;;;;;;;7.57;6.85;;;;;;;;;;5065296;28;20018;-64
2020/12/07 03:09:13;;;;;;;8.05;7.13;;;;;;;;;;5031931;28;20010;-64
2020/12/07 03:11:39;;;;;;;7.82;7.13;;;;;;;;;;5031900;28;20476;-65
2020/12/07 03:14:05;;;;;;;8.05;7.25;;;;;;;;;;5032048;28;20014;-65
2020/12/07 03:16:31;;;;;;;7.70;6.90;;;;;;;;;;5031870;28;20453;-64
2020/12/07 03:18:57;;;;;;;6.82;6.20;;;;;;;;;;5033177;28;20105;-64
2020/12/07 03:21:24;;;;;;;7.05;6.32;;;;;;;;;;5031848;28;20036;-65
2020/12/07 03:23:58;;;;;;;8.93;6.68;;;;;;;;;;5033455;28;20427;-65
2020/12/07 03:26:26;;;;;;;7.10;6.40;;;;;;;;;;5035616;28;20033;-65
2020/12/07 03:28:52;;;;;;;7.45;6.75;;;;;;;;;;5035902;28;20014;-64
2020/12/07 03:31:19;;;;;;;6.43;5.82;;;;;;;;;;5035805;28;20049;-66
2020/12/07 03:33:46;;;;;;;8.05;6.85;;;;;;;;;;5035622;28;20060;-65
2020/12/07 03:36:13;;;;;;;7.20;6.50;;;;;;;;;;5035731;28;20022;-66
2020/12/07 03:38:40;;;;;;;6.95;6.25;;;;;;;;;;5035688;28;20017;-65
2020/12/07 03:41:06;;;;;;;7.10;6.50;;;;;;;;;;5035472;28;20033;-65
2020/12/07 03:43:36;;;;;;;7.15;6.55;;;;;;;;;;5035552;28;20017;-64
2020/12/07 03:46:02;;;;;;;7.25;6.57;;;;;;;;;;5036874;28;20410;-65
2020/12/07 03:48:30;;;;;;;7.30;6.65;;;;;;;;;;5019255;28;20018;-64
2020/12/07 03:50:56;;;;;;;7.70;6.93;;;;;;;;;;5035342;28;20060;-64
2020/12/07 03:53:22;;;;;;;7.88;6.53;;;;;;;;;;5035361;28;20395;-64
2020/12/07 03:55:48;;;;;;;7.32;6.72;;;;;;;;;;5035156;28;20031;-64
2020/12/07 03:58:19;;;;;;;7.75;7.05;;;;;;;;;;5035201;28;20048;-64
2020/12/07 04:00:46;;;;;;;7.00;6.40;;;;;;;;;;5034928;28;20517;-64
2020/12/07 04:03:13;;;;;;;7.57;6.88;;;;;;;;;;5019069;28;20130;-63
2020/12/07 04:05:46;;;;;;;6.90;6.30;;;;;;;;;;5035229;28;20432;-66
2020/12/07 04:08:15;;;;;;;6.93;6.32;;;;;;;;;;5035408;28;20435;-64
2020/12/07 04:10:43;;;;;;;9.27;8.38;;;;;;;;;;5035093;28;20067;-64
2020/12/07 04:13:09;;;;;;;16.17;11.10;;;;;;;;;;5036134;28;20435;-63
2020/12/07 04:15:34;;;;;;;11.88;9.13;;;;;;;;;;5036228;28;20510;-64
2020/12/07 04:18:01;;;;;;;9.63;8.73;;;;;;;;;;5036159;28;20029;-64
2020/12/07 04:20:26;;;;;;;8.40;6.47;;;;;;;;;;5036182;28;20029;-64
2020/12/07 04:22:52;;;;;;;9.25;7.30;;;;;;;;;;5036510;28;20053;-64
2020/12/07 04:25:19;;;;;;;9.80;7.82;;;;;;;;;;5036040;28;20083;-64
2020/12/07 04:27:44;;;;;;;19.80;14.20;;;;;;;;;;5036308;28;20033;-63
2020/12/07 04:30:10;;;;;;;8.57;7.30;;;;;;;;;;5036064;28;20013;-65
2020/12/07 04:32:35;;;;;;;14.88;11.20;;;;;;;;;;5035888;28;20037;-64
2020/12/07 04:35:01;;;;;;;16.55;13.75;;;;;;;;;;5035038;28;20499;-64
2020/12/07 04:37:26;;;;;;;12.68;7.82;;;;;;;;;;5035627;28;20390;-64
2020/12/07 04:39:52;;;;;;;14.32;9.23;;;;;;;;;;5035767;28;20057;-63
2020/12/07 04:42:19;;;;;;;8.68;7.82;;;;;;;;;;5035666;28;20029;-63
2020/12/07 04:44:46;;;;;;;11.45;7.65;;;;;;;;;;5035635;28;20024;-63
2020/12/07 04:47:15;;;;;;;9.13;7.32;;;;;;;;;;5035647;28;20052;-63
2020/12/07 04:49:41;;;;;;;10.35;7.72;;;;;;;;;;5034008;28;20042;-63
2020/12/07 04:52:06;;;;;;;9.57;6.90;;;;;;;;;;5035465;28;20056;-63
2020/12/07 04:54:34;;;;;;;10.35;7.82;;;;;;;;;;5035193;28;20452;-63
2020/12/07 04:57:01;;;;;;;11.32;8.23;;;;;;;;;;5033452;28;20384;-63
2020/12/07 04:59:27;;;;;;;10.68;7.22;;;;;;;;;;5034596;28;20025;-63
2020/12/07 05:01:53;;;;;;;9.73;6.43;;;;;;;;;;5034546;28;20534;-63
2020/12/07 05:04:18;;;;;;;9.52;7.00;;;;;;;;;;5034663;28;20155;-63
2020/12/07 05:06:56;;;;;;;9.35;7.30;;;;;;;;;;5034584;28;20392;-64
2020/12/07 05:09:22;;;;;;;7.93;7.05;;;;;;;;;;5034847;28;20108;-63
2020/12/07 05:11:48;;;;;;;9.45;7.30;;;;;;;;;;5035188;28;20057;-63
2020/12/07 05:14:15;;;;;;;7.75;6.93;;;;;;;;;;5035100;28;20068;-64
2020/12/07 05:16:40;;;;;;;7.97;7.22;;;;;;;;;;5034745;28;20488;-63
2020/12/07 05:19:09;;;;;;;9.02;7.00;;;;;;;;;;5034859;28;20129;-64
2020/12/07 05:21:35;;;;;;;7.10;6.40;;;;;;;;;;5035043;28;20025;-64
2020/12/07 05:24:01;;;;;;;9.18;7.03;;;;;;;;;;5034830;28;20028;-64
2020/12/07 05:26:28;;;;;;;8.05;7.25;;;;;;;;;;5034779;28;20029;-64
2020/12/07 05:29:03;;;;;;;8.63;6.97;;;;;;;;;;5034846;28;20060;-64
2020/12/07 05:31:32;;;;;;;8.68;6.53;;;;;;;;;;5034967;28;20040;-63
2020/12/07 05:33:58;;;;;;;8.05;6.68;;;;;;;;;;5034813;28;20496;-63
2020/12/07 05:36:24;;;;;;;8.50;7.60;;;;;;;;;;5033367;28;20372;-63
2020/12/07 05:38:50;;;;;;;12.98;10.20;;;;;;;;;;5034624;28;20028;-64
2020/12/07 05:41:21;;;;;;;13.18;9.40;;;;;;;;;;5034531;28;20025;-64
2020/12/07 05:43:47;;;;;;;22.17;12.88;;;;;;;;;;5034598;28;20032;-64
2020/12/07 05:46:14;;;;;;;21.10;12.35;;;;;;;;;;5034340;28;20030;-65
2020/12/07 05:48:42;;;;;;;25.20;14.98;;;;;;;;;;5034099;28;20013;-64
2020/12/07 05:51:11;;;;;;;10.98;8.73;;;;;;;;;;5034383;28;20434;-64
2020/12/07 05:53:37;;;;;;;8.93;8.15;;;;;;;;;;5034512;28;20069;-64
2020/12/07 05:56:05;;;;;;;10.07;9.07;;;;;;;;;;5034345;28;20036;-63
2020/12/07 05:58:35;;;;;;;9.32;8.40;;;;;;;;;;5034260;28;20018;-64
2020/12/07 06:01:02;;;;;;;8.27;7.53;;;;;;;;;;5034136;28;20038;-64
2020/12/07 06:03:29;;;;;;;9.63;8.32;;;;;;;;;;5034193;28;20148;-64
2020/12/07 06:05:54;;;;;;;8.70;7.90;;;;;;;;;;5034141;28;20408;-63
2020/12/07 06:08:31;;;;;;;8.25;7.50;;;;;;;;;;5034096;28;20112;-64
2020/12/07 06:10:59;;;;;;;6.97;6.30;;;;;;;;;;5033978;28;20152;-64
2020/12/07 06:13:25;;;;;;;7.15;6.50;;;;;;;;;;5034012;28;20029;-64
2020/12/07 06:15:54;;;;;;;8.45;7.65;;;;;;;;;;5033905;28;20025;-64
2020/12/07 06:18:25;;;;;;;7.68;6.93;;;;;;;;;;5033825;28;20380;-65
2020/12/07 06:20:55;;;;;;;8.57;6.45;;;;;;;;;;5033774;28;20037;-66
2020/12/07 06:23:28;;;;;;;7.43;6.72;;;;;;;;;;5033892;28;20018;-64
2020/12/07 06:25:54;;;;;;;7.32;6.70;;;;;;;;;;5033950;28;20028;-63
2020/12/07 06:28:25;;;;;;;7.15;6.60;;;;;;;;;;5033880;28;20092;-63
2020/12/07 06:30:51;;;;;;;7.15;6.13;;;;;;;;;;5033799;28;20026;-63
2020/12/07 06:33:16;;;;;;;7.15;6.45;;;;;;;;;;5033622;28;20021;-63
2020/12/07 06:35:44;;;;;;;7.70;6.55;;;;;;;;;;5032284;28;20410;-62
2020/12/07 06:38:09;;;;;;;7.50;6.90;;;;;;;;;;5033660;28;20057;-62
2020/12/07 06:40:36;;;;;;;6.68;6.05;;;;;;;;;;5033568;28;20412;-64
2020/12/07 06:43:29;;;;;;;6.60;6.05;;;;;;;;;;5033656;28;20460;-63
2020/12/07 06:45:55;;;;;;;9.23;8.02;;;;;;;;;;5033818;28;20029;-64
2020/12/07 06:48:23;;;;;;;7.35;6.70;;;;;;;;;;5033629;28;20010;-64
2020/12/07 06:50:51;;;;;;;8.30;5.88;;;;;;;;;;5033658;28;20103;-62
2020/12/07 06:53:37;;;;;;;8.50;6.93;;;;;;;;;;5033188;28;20115;-62
2020/12/07 06:56:03;;;;;;;7.70;6.90;;;;;;;;;;5033367;28;20465;-62
2020/12/07 06:58:33;;;;;;;6.50;5.88;;;;;;;;;;5032971;28;20030;-62
2020/12/07 07:01:07;;;;;;;7.00;6.38;;;;;;;;;;5032037;28;20033;-63
2020/12/07 07:03:33;;;;;;;7.35;6.70;;;;;;;;;;5032676;28;20021;-62
2020/12/07 07:06:06;;;;;;;9.65;8.65;;;;;;;;;;5033752;28;20079;-62
2020/12/07 07:08:32;;;;;;;10.10;8.93;;;;;;;;;;5033474;28;20030;-62
2020/12/07 07:11:02;;;;;;;8.45;7.70;;;;;;;;;;5031905;28;20170;-63
2020/12/07 07:13:28;;;;;;;8.48;7.55;;;;;;;;;;5032037;28;20030;-63
2020/12/07 07:15:54;;;;;;;9.70;7.53;;;;;;;;;;5031874;28;20021;-63
2020/12/07 07:18:20;;;;;;;13.77;12.38;;;;;;;;;;5033110;28;20029;-63
2020/12/07 07:20:46;;;;;;;14.15;12.68;;;;;;;;;;5033092;28;20025;-63
2020/12/07 07:23:12;;;;;;;15.18;13.70;;;;;;;;;;5031830;28;20559;-63
2020/12/07 07:25:55;;;;;;;10.13;9.05;;;;;;;;;;5033157;28;20096;-63
2020/12/07 07:28:20;;;;;;;8.05;7.25;;;;;;;;;;5033280;28;20029;-63
2020/12/07 07:30:46;;;;;;;8.40;7.60;;;;;;;;;;5032982;28;20022;-63
2020/12/07 07:33:11;;;;;;;8.18;7.30;;;;;;;;;;5033001;28;20112;-63
2020/12/07 07:35:37;;;;;;;8.32;7.03;;;;;;;;;;5033068;28;20464;-63
2020/12/07 07:38:03;;;;;;;7.75;6.85;;;;;;;;;;5032993;28;20034;-63
2020/12/07 07:40:29;;;;;;;7.63;6.80;;;;;;;;;;5032997;28;20444;-63
2020/12/07 07:43:02;;;;;;;7.85;6.88;;;;;;;;;;5031725;28;20419;-63
2020/12/07 07:45:39;;;;;;;7.10;6.50;;;;;;;;;;5031838;28;20104;-63
2020/12/07 08:15:26;;;;;;;27.77;15.30;;;;;;;;;;5036002;28;20045;-63
2020/12/07 08:17:58;;;;;;;28.48;16.27;;;;;;;;;;5036321;28;20502;-63
2020/12/07 08:24:35;;;;;;;15.80;12.35;;;;;;;;;;5036706;28;20503;-63
2020/12/07 08:30:36;;;;;;;14.20;12.23;;;;;;;;;;5036325;28;20064;-63
2020/12/07 08:36:10;;;;;;;11.35;8.95;;;;;;;;;;5035808;28;20056;-63
2020/12/07 08:38:37;;;;;;;9.23;8.10;;;;;;;;;;5035638;28;20057;-63
2020/12/07 08:41:07;;;;;;;7.85;7.05;;;;;;;;;;5035559;28;20499;-63
2020/12/07 08:43:34;;;;;;;8.20;7.40;;;;;;;;;;5035787;28;20057;-62
2020/12/07 08:45:59;;;;;;;21.30;18.88;;;;;;;;;;5035615;28;20018;-62
2020/12/07 08:48:24;;;;;;;11.02;10.02;;;;;;;;;;5035602;28;20498;-62
2020/12/07 08:50:52;;;;;;;34.17;30.92;;;;;;;;;;5035587;28;20049;-63
2020/12/07 08:53:17;;;;;;;10.38;9.48;;;;;;;;;;5035331;28;20104;-63
2020/12/07 08:55:43;;;;;;;16.63;15.07;;;;;;;;;;5035466;28;20436;-63
2020/12/07 08:58:09;;;;;;;14.77;12.98;;;;;;;;;;5035265;28;20534;-63
2020/12/07 09:00:34;;;;;;;15.63;13.30;;;;;;;;;;5035752;28;20010;-65
2020/12/07 09:03:00;;;;;;;28.95;26.05;;;;;;;;;;5035463;28;20025;-64
2020/12/07 09:05:25;;;;;;;11.60;10.50;;;;;;;;;;5035301;28;20100;-63
2020/12/07 09:07:52;;;;;;;8.95;8.05;;;;;;;;;;5035335;28;20086;-63
2020/12/07 09:10:17;;;;;;;8.85;8.05;;;;;;;;;;5035174;28;20435;-64
2020/12/07 09:12:42;;;;;;;7.90;7.10;;;;;;;;;;5035054;28;20068;-64
2020/12/07 09:15:08;;;;;;;8.07;7.18;;;;;;;;;;5035041;28;20013;-63
2020/12/07 09:17:33;;;;;;;7.55;6.47;;;;;;;;;;5035018;28;20053;-64
2020/12/07 09:19:59;;;;;;;8.48;7.60;;;;;;;;;;5035041;28;20025;-63
2020/12/07 09:22:25;;;;;;;16.65;9.90;;;;;;;;;;5034720;28;20033;-63
2020/12/07 09:24:50;;;;;;;44.13;23.70;;;;;;;;;;5035050;28;20482;-64
2020/12/07 09:27:16;;;;;;;64.68;44.03;;;;;;;;;;5035019;28;20033;-63
2020/12/07 09:29:42;;;;;;;11.40;8.23;;;;;;;;;;5034865;28;20092;-63
2020/12/07 09:32:08;;;;;;;9.15;8.25;;;;;;;;;;5034824;28;20029;-64
2020/12/07 09:34:33;;;;;;;13.10;10.05;;;;;;;;;;5034817;28;20120;-63
2020/12/07 09:36:59;;;;;;;12.50;9.32;;;;;;;;;;5034688;28;20084;-63
2020/12/07 09:39:24;;;;;;;10.98;9.70;;;;;;;;;;5034566;28;20032;-63
2020/12/07 09:41:49;;;;;;;8.85;6.32;;;;;;;;;;5034604;28;20033;-64
2020/12/07 09:44:15;;;;;;;16.00;9.80;;;;;;;;;;5035092;28;20022;-64
2020/12/07 09:46:41;;;;;;;17.75;10.90;;;;;;;;;;5034566;28;20427;-63
2020/12/07 09:56:55;;;;;;;15.02;9.73;;;;;;;;;;5035033;28;20032;-64
2020/12/07 10:02:56;;;;;;;21.13;13.27;;;;;;;;;;5034549;28;20498;-62
2020/12/07 10:08:57;;;;;;;13.50;9.07;;;;;;;;;;5034754;28;20231;-62
2020/12/07 10:14:57;;;;;;;17.80;12.07;;;;;;;;;;5034645;28;20083;-62
2020/12/07 10:20:58;;;;;;;14.43;9.82;;;;;;;;;;5034183;28;20049;-62
2020/12/07 10:27:00;;;;;;;12.82;11.05;;;;;;;;;;5034435;28;20024;-62
2020/12/07 10:36:38;;;;;;;10.18;7.50;;;;;;;;;;5034283;28;20033;-62
2020/12/07 10:42:39;;;;;;;14.35;9.82;;;;;;;;;;5033901;28;20040;-62
2020/12/07 10:48:40;;;;;;;12.05;8.00;;;;;;;;;;5033860;28;20031;-63
2020/12/07 10:58:03;;;;;;;16.38;11.65;;;;;;;;;;5033744;28;20029;-63
2020/12/07 11:04:04;;;;;;;11.65;8.50;;;;;;;;;;5033919;28;20503;-63
2020/12/07 11:10:04;;;;;;;15.55;10.68;;;;;;;;;;5033854;28;20028;-63
2020/12/07 11:16:05;;;;;;;12.43;9.35;;;;;;;;;;5033823;28;20083;-63
2020/12/07 11:22:05;;;;;;;29.95;18.20;;;;;;;;;;5033576;28;20040;-64
2020/12/07 11:31:45;;;;;;;14.95;11.05;;;;;;;;;;5033666;28;20181;-63
2020/12/07 11:37:50;;;;;;;22.15;16.30;;;;;;;;;;5033630;28;20039;-62
2020/12/07 11:49:51;;;;;;;18.55;14.52;;;;;;;;;;5037653;28;20079;-62
2020/12/07 11:59:41;;;;;;;25.67;16.45;;;;;;;;;;5036906;28;20067;-62
2020/12/07 12:05:41;;;;;;;13.02;10.52;;;;;;;;;;5037077;28;20075;-62
2020/12/07 12:11:44;;;;;;;15.95;12.63;;;;;;;;;;5036979;28;20142;-63
2020/12/07 12:17:46;;;;;;;16.73;12.55;;;;;;;;;;5036844;28;20127;-63
2020/12/07 12:23:48;;;;;;;18.90;11.35;;;;;;;;;;5036712;28;20115;-63
2020/12/07 12:29:47;;;;;;;13.63;10.38;;;;;;;;;;5036633;28;20028;-63
2020/12/07 12:35:48;;;;;;;13.20;10.65;;;;;;;;;;5036520;28;20103;-63
2020/12/07 12:41:50;;;;;;;14.20;9.57;;;;;;;;;;5036230;28;20113;-64
2020/12/07 12:47:51;;;;;;;12.95;10.60;;;;;;;;;;5036292;28;20033;-62
2020/12/07 12:53:52;;;;;;;18.67;12.38;;;;;;;;;;5035951;28;20035;-61
2020/12/07 13:03:04;;;;;;;25.10;15.60;;;;;;;;;;5035716;28;20072;-62
2020/12/07 13:09:04;;;;;;;21.35;15.02;;;;;;;;;;5035914;28;20383;-62
2020/12/07 13:15:04;;;;;;;16.80;12.57;;;;;;;;;;5035800;28;20031;-62
2020/12/07 13:33:56;;;;;;;14.02;12.23;;;;;;;;;;5035431;28;20036;-62
2020/12/07 13:39:57;;;;;;;16.08;12.50;;;;;;;;;;5035080;28;20117;-62
2020/12/07 13:45:58;;;;;;;13.68;10.40;;;;;;;;;;5035270;28;20144;-62
2020/12/07 13:51:59;;;;;;;70.93;41.50;;;;;;;;;;5035084;28;20076;-62
2020/12/07 14:01:36;;;;;;;22.80;18.30;;;;;;;;;;5011977;28;20096;-62
2020/12/07 14:08:19;;;;;;;24.45;17.13;;;;;;;;;;5033535;28;20094;-62
2020/12/07 14:14:20;;;;;;;17.80;13.85;;;;;;;;;;5034418;28;20095;-62
2020/12/07 14:44:08;;;;;;;23.13;16.50;;;;;;;;;;5034152;28;20036;-63
2020/12/07 15:24:35;;;;;;;21.15;15.32;;;;;;;;;;5037883;28;20032;-65
2020/12/07 15:30:36;;;;;;;29.83;17.80;;;;;;;;;;5037481;28;20248;-65
2020/12/07 15:36:37;;;;;;;38.95;24.67;;;;;;;;;;5037645;28;20060;-65
2020/12/07 15:42:38;;;;;;;24.77;17.08;;;;;;;;;;5037281;28;20112;-65
2020/12/07 15:48:40;;;;;;;21.98;14.93;;;;;;;;;;5037429;28;20032;-65
2020/12/07 15:54:40;;;;;;;21.58;13.98;;;;;;;;;;5037320;28;20140;-65
2020/12/07 16:00:41;;;;;;;21.55;15.25;;;;;;;;;;5037244;28;20080;-65
2020/12/07 16:09:58;;;;;;;22.20;14.70;;;;;;;;;;5037021;28;20029;-65
2020/12/07 16:15:59;;;;;;;67.43;31.60;;;;;;;;;;5037039;28;20151;-65
2020/12/07 16:22:00;;;;;;;85.50;48.50;;;;;;;;;;5036630;28;20036;-65
2020/12/07 16:28:01;;;;;;;56.17;37.72;;;;;;;;;;5036668;28;20064;-66
2020/12/07 16:34:02;;;;;;;37.58;25.77;;;;;;;;;;5036580;28;20376;-66
2020/12/07 16:40:03;;;;;;;37.50;25.83;;;;;;;;;;5036478;28;20048;-66
2020/12/07 16:46:03;;;;;;;39.97;21.00;;;;;;;;;;5036631;28;20067;-66
2020/12/07 16:48:29;;;;;;;45.67;24.67;;;;;;;;;;5039393;28;20394;-66
2020/12/07 16:50:55;;;;;;;52.10;26.35;;;;;;;;;;5044505;28;20021;-66
2020/12/07 16:53:21;;;;;;;40.20;20.77;;;;;;;;;;5051055;28;20061;-66
2020/12/07 16:55:46;;;;;;;35.92;20.30;;;;;;;;;;5035401;28;20060;-66
2020/12/07 16:58:12;;;;;;;31.80;19.30;;;;;;;;;;5035419;28;20037;-66
2020/12/07 17:00:38;;;;;;;35.83;19.77;;;;;;;;;;5035635;28;20021;-66
2020/12/07 17:03:03;;;;;;;30.58;19.30;;;;;;;;;;5039624;28;20117;-66
2020/12/07 17:05:30;;;;;;;28.40;17.98;;;;;;;;;;5033721;28;20029;-66
2020/12/07 17:07:57;;;;;;;24.50;16.83;;;;;;;;;;5041364;28;20029;-53
2020/12/07 17:10:22;;;;;;;49.40;37.45;;;;;;;;;;5047892;28;20034;-66
2020/12/07 17:12:48;;;;;;;23.45;14.25;;;;;;;;;;5042896;28;20044;-66
2020/12/07 17:15:14;;;;;;;27.65;16.55;;;;;;;;;;5026424;28;20532;-66
2020/12/07 17:17:39;;;;;;;26.42;16.20;;;;;;;;;;5054564;28;20033;-66
2020/12/07 17:20:07;;;;;;;24.90;15.93;;;;;;;;;;5054271;28;20043;-66
2020/12/07 17:22:32;;;;;;;41.20;23.23;;;;;;;;;;5042225;28;20029;-67
2020/12/07 17:24:58;;;;;;;57.65;34.55;;;;;;;;;;5034225;28;20016;-66
2020/12/07 17:27:24;;;;;;;44.67;25.92;;;;;;;;;;5034588;28;20036;-67
2020/12/07 17:29:49;;;;;;;34.45;19.92;;;;;;;;;;5034351;28;20466;-67
2020/12/07 17:32:16;;;;;;;39.67;22.77;;;;;;;;;;5035568;28;20025;-66
2020/12/07 17:34:45;;;;;;;31.23;20.77;;;;;;;;;;5046252;28;20020;-66
2020/12/07 17:37:10;;;;;;;37.55;21.50;;;;;;;;;;5034915;28;20041;-67
2020/12/07 17:39:36;;;;;;;37.70;21.77;;;;;;;;;;5034165;28;20029;-66
2020/12/07 17:42:02;;;;;;;44.22;25.30;;;;;;;;;;5032757;28;20033;-66
2020/12/07 17:44:27;;;;;;;36.60;18.90;;;;;;;;;;5033708;28;20025;-66
2020/12/07 17:46:59;;;;;;;26.92;18.40;;;;;;;;;;5033933;28;20025;-66
2020/12/07 17:49:29;;;;;;;27.88;18.05;;;;;;;;;;5034277;28;20527;-67
2020/12/07 17:51:54;;;;;;;32.53;20.13;;;;;;;;;;5034222;28;20025;-67
2020/12/07 17:54:20;;;;;;;27.80;18.00;;;;;;;;;;5033638;28;20036;-66
2020/12/07 17:56:45;;;;;;;37.85;21.35;;;;;;;;;;5038280;28;20027;-67
2020/12/07 17:59:12;;;;;;;32.25;18.38;;;;;;;;;;5040791;28;20403;-66
2020/12/07 18:01:38;;;;;;;28.67;17.88;;;;;;;;;;5034967;28;20029;-66
2020/12/07 18:04:04;;;;;;;27.02;16.65;;;;;;;;;;5038564;28;20029;-66
2020/12/07 18:06:31;;;;;;;29.25;19.38;;;;;;;;;;5033180;28;20060;-66
2020/12/07 18:08:57;;;;;;;26.92;17.95;;;;;;;;;;5033514;28;20442;-66
2020/12/07 18:11:27;;;;;;;29.45;18.63;;;;;;;;;;5036962;28;20113;-66
2020/12/07 18:13:53;;;;;;;30.80;20.02;;;;;;;;;;5043153;28;20103;-66
2020/12/07 18:16:32;;;;;;;32.72;20.80;;;;;;;;;;5033379;28;20460;-66
2020/12/07 18:18:59;;;;;;;28.95;17.73;;;;;;;;;;5033471;28;20029;-66
2020/12/07 18:21:24;;;;;;;26.00;16.90;;;;;;;;;;5033215;28;20029;-66
2020/12/07 18:23:51;;;;;;;31.13;20.38;;;;;;;;;;5033267;28;20033;-66
2020/12/07 18:26:19;;;;;;;28.35;18.65;;;;;;;;;;5033500;28;20059;-66
2020/12/07 18:28:45;;;;;;;33.65;23.05;;;;;;;;;;5040501;28;20029;-67
2020/12/07 18:31:11;;;;;;;31.10;20.48;;;;;;;;;;5041893;28;20045;-66
2020/12/07 18:33:37;;;;;;;27.70;18.60;;;;;;;;;;5040414;28;20395;-66
2020/12/07 18:36:03;;;;;;;25.10;17.27;;;;;;;;;;5042571;28;20022;-67
2020/12/07 18:38:29;;;;;;;31.55;19.02;;;;;;;;;;5043170;28;20018;-67
2020/12/07 18:40:56;;;;;;;31.65;20.25;;;;;;;;;;5032856;28;20010;-66
2020/12/07 18:43:22;;;;;;;30.02;20.52;;;;;;;;;;5032923;28;20395;-66
2020/12/07 18:45:48;;;;;;;28.08;20.02;;;;;;;;;;5031547;28;20017;-66
2020/12/07 18:48:13;;;;;;;27.42;19.85;;;;;;;;;;5033056;28;20488;-66
2020/12/07 18:50:39;;;;;;;36.13;22.48;;;;;;;;;;5033081;28;20051;-66
2020/12/07 18:53:04;;;;;;;35.30;22.70;;;;;;;;;;5031481;28;20108;-66
2020/12/07 18:55:30;;;;;;;34.30;23.08;;;;;;;;;;5031914;28;20378;-66
2020/12/07 18:57:57;;;;;;;38.45;24.27;;;;;;;;;;5031617;28;20041;-65
2020/12/07 19:00:24;;;;;;;43.22;31.83;;;;;;;;;;5032949;28;20033;-65
2020/12/07 19:02:50;;;;;;;38.28;23.83;;;;;;;;;;5034510;28;20037;-65
2020/12/07 19:05:16;;;;;;;41.85;25.73;;;;;;;;;;5050613;28;20021;-65
2020/12/07 19:07:42;;;;;;;56.33;39.42;;;;;;;;;;5047030;28;20048;-65
2020/12/07 19:10:09;;;;;;;49.83;28.98;;;;;;;;;;5041570;28;20032;-65
2020/12/07 19:12:39;;;;;;;56.70;30.10;;;;;;;;;;5038466;28;20056;-65
2020/12/07 19:15:07;;;;;;;66.43;40.67;;;;;;;;;;5048931;28;20063;-65
2020/12/07 19:17:34;;;;;;;46.55;28.25;;;;;;;;;;5051485;28;20021;-65
2020/12/07 19:20:03;;;;;;;62.17;34.03;;;;;;;;;;5052361;28;20086;-65
2020/12/07 19:22:29;;;;;;;52.88;28.92;;;;;;;;;;5042321;28;20372;-65
2020/12/07 19:24:55;;;;;;;40.03;22.60;;;;;;;;;;5032516;28;20464;-65
2020/12/07 19:27:21;;;;;;;60.15;36.80;;;;;;;;;;5032689;28;20067;-65
2020/12/07 19:29:47;;;;;;;65.03;34.78;;;;;;;;;;5031314;28;20067;-65
2020/12/07 19:32:14;;;;;;;71.82;40.00;;;;;;;;;;5032494;28;20017;-65
2020/12/07 19:34:41;;;;;;;60.35;39.67;;;;;;;;;;5032193;28;20034;-65
2020/12/07 19:37:06;;;;;;;46.92;27.52;;;;;;;;;;5032231;28;20025;-64
2020/12/07 19:39:32;;;;;;;39.38;23.38;;;;;;;;;;5032570;28;20075;-62
2020/12/07 19:42:03;;;;;;;32.10;20.58;;;;;;;;;;5032033;28;20024;-65
2020/12/07 19:44:30;;;;;;;32.72;22.58;;;;;;;;;;5032120;28;20034;-65
2020/12/07 19:46:56;;;;;;;37.63;22.23;;;;;;;;;;5032415;28;20022;-65
2020/12/07 19:49:21;;;;;;;38.88;24.52;;;;;;;;;;5032424;28;20021;-65
2020/12/07 19:51:47;;;;;;;95.72;63.50;;;;;;;;;;5031971;28;20036;-65
2020/12/07 19:54:13;;;;;;;41.58;26.60;;;;;;;;;;5032094;28;20048;-65
2020/12/07 19:56:42;;;;;;;37.25;24.90;;;;;;;;;;5030977;28;20460;-65
2020/12/07 19:59:08;;;;;;;40.63;29.08;;;;;;;;;;5032353;28;20030;-65